createdAt,value
2023-06-04T00:02:16.365Z,20.75
2023-06-04T00:04:43.434Z,19.45
2023-06-04T00:07:10.356Z,21.60
2023-06-04T00:09:37.132Z,21.75
2023-06-04T00:12:04.064Z,21.45
2023-06-04T00:14:30.997Z,21.50
2023-06-04T00:16:57.838Z,21.10
2023-06-04T00:19:24.885Z,21.25
2023-06-04T00:21:51.633Z,20.08
2023-06-04T00:24:18.502Z,20.88
2023-06-04T00:26:46.053Z,20.13
2023-06-04T00:29:12.914Z,21.00
2023-06-04T00:31:39.854Z,20.52
2023-06-04T00:34:06.969Z,22.00
2023-06-04T00:36:33.822Z,20.88
2023-06-04T00:39:00.691Z,19.90
2023-06-04T00:41:27.463Z,21.23
2023-06-04T00:43:57.488Z,21.27
2023-06-04T00:46:26.595Z,19.33
2023-06-04T00:48:54.342Z,20.27
2023-06-04T00:51:22.238Z,19.25
2023-06-04T00:53:52.317Z,16.92
2023-06-04T00:56:19.633Z,18.67
2023-06-04T00:58:47.709Z,17.10
2023-06-04T01:01:52.842Z,17.55
2023-06-04T01:04:32.777Z,18.50
2023-06-04T01:07:04.320Z,18.35
2023-06-04T01:09:32.024Z,16.95
2023-06-04T01:11:59.611Z,16.65
2023-06-04T01:14:27.078Z,17.33
2023-06-04T01:17:04.022Z,17.35
2023-06-04T01:19:52.338Z,16.80
2023-06-04T01:22:29.919Z,17.92
2023-06-04T01:25:00.437Z,18.48
2023-06-04T01:27:27.532Z,16.40
2023-06-04T01:29:57.802Z,16.95
2023-06-04T01:32:26.214Z,17.40
2023-06-04T01:34:53.096Z,16.48
2023-06-04T01:37:19.847Z,17.88
2023-06-04T01:39:46.686Z,18.15
2023-06-04T01:42:13.416Z,17.38
2023-06-04T01:44:40.150Z,18.25
2023-06-04T01:47:07.211Z,18.77
2023-06-04T01:49:33.973Z,16.67
2023-06-04T01:52:00.690Z,18.38
2023-06-04T01:54:27.685Z,19.58
2023-06-04T01:56:54.450Z,19.45
2023-06-04T01:59:22.248Z,18.90
2023-06-04T02:01:49.022Z,19.60
2023-06-04T02:04:16.107Z,18.77
2023-06-04T02:06:42.891Z,17.95
2023-06-04T02:09:09.656Z,19.17
2023-06-04T02:11:36.401Z,19.52
2023-06-04T02:14:03.098Z,19.10
2023-06-04T02:16:29.897Z,20.27
2023-06-04T02:18:56.578Z,20.15
2023-06-04T02:21:23.293Z,19.42
2023-06-04T02:23:50.287Z,19.40
2023-06-04T02:26:17.073Z,20.13
2023-06-04T02:28:43.828Z,19.63
2023-06-04T02:31:10.661Z,18.75
2023-06-04T02:33:37.373Z,18.92
2023-06-04T02:36:04.338Z,19.45
2023-06-04T02:38:31.116Z,20.10
2023-06-04T02:40:57.899Z,19.65
2023-06-04T02:43:24.709Z,20.92
2023-06-04T02:45:51.502Z,20.30
2023-06-04T02:48:18.382Z,21.90
2023-06-04T02:50:45.127Z,20.80
2023-06-04T02:53:11.913Z,22.60
2023-06-04T02:55:38.769Z,20.27
2023-06-04T02:58:05.502Z,22.55
2023-06-04T03:00:32.722Z,21.92
2023-06-04T03:03:03.090Z,20.55
2023-06-04T03:05:32.999Z,21.17
2023-06-04T03:08:02.148Z,21.77
2023-06-04T03:10:28.947Z,21.92
2023-06-04T03:12:55.872Z,21.70
2023-06-04T03:15:22.684Z,21.73
2023-06-04T03:17:49.806Z,21.92
2023-06-04T03:20:16.560Z,22.65
2023-06-04T03:22:43.533Z,20.95
2023-06-04T03:25:10.777Z,21.83
2023-06-04T03:27:37.593Z,21.27
2023-06-04T03:30:05.075Z,21.25
2023-06-04T03:32:32.037Z,21.73
2023-06-04T03:34:58.973Z,20.92
2023-06-04T03:37:27.081Z,20.70
2023-06-04T03:39:53.856Z,19.40
2023-06-04T03:42:20.653Z,19.88
2023-06-04T03:44:47.624Z,19.58
2023-06-04T03:47:14.572Z,19.50
2023-06-04T03:49:41.805Z,19.05
2023-06-04T03:52:08.606Z,18.52
2023-06-04T03:54:35.622Z,18.42
2023-06-04T03:57:03.099Z,17.40
2023-06-04T03:59:30.196Z,17.48
2023-06-04T04:01:56.970Z,16.90
2023-06-04T04:04:23.773Z,16.35
2023-06-04T04:06:50.739Z,15.18
2023-06-04T04:09:17.558Z,13.85
2023-06-04T04:11:44.299Z,14.93
2023-06-04T04:14:11.168Z,13.90
2023-06-04T04:16:37.928Z,11.18
2023-06-04T04:19:04.750Z,9.55
2023-06-04T04:21:31.768Z,9.50
2023-06-04T04:23:58.518Z,10.57
2023-06-04T04:26:28.736Z,10.38
2023-06-04T04:28:59.083Z,10.10
2023-06-04T04:31:26.528Z,10.75
2023-06-04T04:33:53.472Z,10.00
2023-06-04T04:36:22.843Z,10.00
2023-06-04T04:38:55.527Z,9.20
2023-06-04T04:41:24.007Z,9.70
2023-06-04T04:43:50.825Z,8.70
2023-06-04T04:46:17.962Z,8.13
2023-06-04T04:48:44.858Z,7.68
2023-06-04T04:51:11.596Z,7.22
2023-06-04T04:53:38.341Z,5.82
2023-06-04T04:56:07.812Z,5.00
2023-06-04T04:58:34.829Z,4.75
2023-06-04T05:01:01.572Z,4.47
2023-06-04T05:03:28.541Z,4.63
2023-06-04T05:05:55.350Z,4.57
2023-06-04T05:08:22.172Z,4.32
2023-06-04T05:10:49.901Z,4.65
2023-06-04T05:13:16.722Z,4.35
2023-06-04T05:15:43.518Z,4.32
2023-06-04T05:18:10.648Z,4.05
2023-06-04T05:20:38.768Z,3.28
2023-06-04T05:23:05.928Z,2.92
2023-06-04T05:25:32.864Z,2.90
2023-06-04T05:27:59.662Z,2.70
2023-06-04T05:30:26.969Z,2.90
2023-06-04T05:32:54.624Z,2.50
2023-06-04T05:35:21.590Z,2.10
2023-06-04T05:37:54.769Z,2.08
2023-06-04T05:40:22.447Z,1.65
2023-06-04T05:42:50.146Z,1.67
2023-06-04T05:45:17.070Z,1.73
2023-06-04T05:47:43.955Z,1.90
2023-06-04T05:50:11.344Z,2.17
2023-06-04T05:52:38.789Z,2.17
2023-06-04T05:55:09.076Z,2.30
2023-06-04T05:57:36.225Z,2.13
2023-06-04T06:00:07.193Z,2.25
2023-06-04T06:02:34.223Z,2.25
2023-06-04T06:05:01.023Z,1.63
2023-06-04T06:07:27.927Z,1.63
2023-06-04T06:09:54.727Z,1.30
2023-06-04T06:12:21.776Z,1.50
2023-06-04T06:14:49.414Z,0.95
2023-06-04T06:17:16.481Z,1.42
2023-06-04T06:19:43.149Z,1.20
2023-06-04T06:22:09.894Z,1.33
2023-06-04T06:24:37.108Z,1.10
2023-06-04T06:27:04.201Z,1.10
2023-06-04T06:29:30.962Z,1.20
2023-06-04T06:31:57.744Z,1.20
2023-06-04T06:34:24.909Z,1.55
2023-06-04T06:36:51.686Z,1.52
2023-06-04T06:39:18.501Z,1.30
2023-06-04T06:41:46.257Z,1.52
2023-06-04T06:44:13.092Z,1.55
2023-06-04T06:46:39.980Z,1.60
2023-06-04T06:49:07.198Z,1.80
2023-06-04T06:51:33.950Z,1.45
2023-06-04T06:54:01.079Z,1.20
2023-06-04T06:56:27.835Z,1.20
2023-06-04T06:58:54.571Z,1.52
2023-06-04T07:01:22.499Z,1.23
2023-06-04T07:03:49.254Z,1.27
2023-06-04T07:06:16.926Z,1.10
2023-06-04T07:08:43.687Z,1.35
2023-06-04T07:11:13.045Z,1.35
2023-06-04T07:13:40.417Z,1.45
2023-06-04T07:16:07.489Z,1.15
2023-06-04T07:18:34.363Z,1.42
2023-06-04T07:21:01.155Z,1.10
2023-06-04T07:23:28.450Z,1.38
2023-06-04T07:25:55.878Z,1.17
2023-06-04T07:28:22.806Z,1.27
2023-06-04T07:30:49.558Z,1.25
2023-06-04T07:33:16.301Z,1.20
2023-06-04T07:35:43.098Z,1.45
2023-06-04T07:38:10.109Z,1.83
2023-06-04T07:40:36.834Z,1.30
2023-06-04T07:43:03.571Z,1.30
2023-06-04T07:45:34.798Z,1.92
2023-06-04T07:48:03.064Z,1.60
2023-06-04T07:50:29.914Z,2.20
2023-06-04T07:52:56.738Z,2.13
2023-06-04T07:55:23.639Z,2.17
2023-06-04T07:57:50.561Z,2.03
2023-06-04T08:00:18.902Z,2.20
2023-06-04T08:02:45.958Z,2.40
2023-06-04T08:05:14.740Z,2.70
2023-06-04T08:07:42.912Z,2.92
2023-06-04T08:10:10.131Z,3.17
2023-06-04T08:12:36.994Z,3.33
2023-06-04T08:15:04.687Z,3.30
2023-06-04T08:17:31.437Z,3.72
2023-06-04T08:19:58.503Z,4.30
2023-06-04T08:22:25.543Z,5.22
2023-06-04T08:24:52.292Z,5.25
2023-06-04T08:27:19.078Z,5.75
2023-06-04T08:29:45.968Z,4.80
2023-06-04T08:32:12.679Z,5.32
2023-06-04T08:34:39.416Z,5.43
2023-06-04T08:37:07.138Z,5.28
2023-06-04T08:39:34.449Z,5.53
2023-06-04T08:42:04.825Z,5.72
2023-06-04T08:44:32.012Z,6.13
2023-06-04T08:47:04.696Z,5.88
2023-06-04T08:49:37.685Z,5.60
2023-06-04T08:52:05.003Z,6.22
2023-06-04T08:54:33.571Z,6.50
2023-06-04T08:57:02.204Z,7.63
2023-06-04T08:59:29.410Z,6.68
2023-06-04T09:01:56.909Z,7.50
2023-06-04T09:04:24.364Z,7.10
2023-06-04T09:06:51.492Z,7.70
2023-06-04T09:09:19.962Z,7.63
2023-06-04T09:11:56.773Z,7.45
2023-06-04T09:14:24.096Z,8.35
2023-06-04T09:16:56.669Z,7.55
2023-06-04T09:19:23.613Z,8.07
2023-06-04T09:21:59.562Z,7.10
2023-06-04T09:24:39.710Z,7.40
2023-06-04T09:27:17.266Z,6.80
2023-06-04T09:29:55.384Z,7.38
2023-06-04T09:32:27.729Z,8.35
2023-06-04T09:35:12.798Z,9.00
2023-06-04T09:37:44.104Z,8.20
2023-06-04T09:40:11.393Z,9.35
2023-06-04T09:42:45.115Z,10.10
2023-06-04T09:45:12.847Z,10.52
2023-06-04T09:47:49.614Z,11.07
2023-06-04T09:50:31.197Z,11.02
2023-06-04T09:52:58.087Z,11.40
2023-06-04T09:55:24.955Z,11.07
2023-06-04T09:57:53.332Z,12.45
2023-06-04T10:00:25.218Z,12.77
2023-06-04T10:02:58.248Z,12.68
2023-06-04T10:05:26.369Z,12.20
2023-06-04T10:07:53.871Z,12.60
2023-06-04T10:10:24.275Z,10.27
2023-06-04T10:12:58.867Z,10.82
2023-06-04T10:15:25.956Z,10.40
2023-06-04T10:17:55.135Z,6.45
2023-06-04T10:20:22.671Z,5.88
2023-06-04T10:22:50.367Z,7.82
2023-06-04T10:25:18.148Z,8.88
2023-06-04T10:27:45.119Z,6.22
2023-06-04T10:30:12.294Z,7.10
2023-06-04T10:32:39.253Z,6.50
2023-06-04T10:35:09.095Z,7.10
2023-06-04T10:37:36.213Z,10.30
2023-06-04T10:40:05.977Z,13.02
2023-06-04T10:42:41.591Z,13.65
2023-06-04T10:45:11.019Z,12.68
2023-06-04T10:47:41.860Z,13.52
2023-06-04T10:50:13.736Z,13.05
2023-06-04T10:52:56.188Z,14.60
2023-06-04T10:55:23.051Z,13.27
2023-06-04T10:58:00.562Z,13.27
2023-06-04T11:00:42.003Z,12.55
2023-06-04T11:03:11.220Z,8.52
2023-06-04T11:05:43.686Z,6.30
2023-06-04T11:08:12.383Z,6.18
2023-06-04T11:10:41.156Z,5.32
2023-06-04T11:13:08.357Z,5.63
2023-06-04T11:15:45.959Z,6.53
2023-06-04T11:18:18.481Z,4.80
2023-06-04T11:20:49.529Z,4.70
2023-06-04T11:23:17.254Z,4.53
2023-06-04T11:25:45.461Z,5.00
2023-06-04T11:28:19.434Z,4.40
2023-06-04T11:30:58.879Z,5.43
2023-06-04T11:33:25.782Z,5.75
2023-06-04T11:35:52.645Z,6.15
2023-06-04T11:38:19.396Z,6.07
2023-06-04T11:40:59.157Z,6.03
2023-06-04T11:43:26.190Z,6.78
2023-06-04T11:45:52.983Z,9.18
2023-06-04T11:48:21.135Z,7.03
2023-06-04T11:50:48.031Z,7.20
2023-06-04T11:53:14.914Z,7.25
2023-06-04T11:55:42.275Z,6.60
2023-06-04T11:58:09.584Z,5.22
2023-06-04T12:00:37.193Z,5.15
2023-06-04T12:03:04.151Z,3.97
2023-06-04T12:05:33.155Z,3.67
2023-06-04T12:08:10.845Z,3.40
2023-06-04T12:10:42.463Z,3.20
2023-06-04T12:13:10.553Z,3.30
2023-06-04T12:15:37.619Z,2.95
2023-06-04T12:18:06.268Z,3.13
2023-06-04T12:20:47.406Z,3.53
2023-06-04T12:23:21.881Z,3.47
2023-06-04T12:25:52.216Z,3.13
2023-06-04T12:28:19.354Z,2.80
2023-06-04T12:30:46.318Z,3.13
2023-06-04T12:33:13.453Z,3.20
2023-06-04T12:35:40.399Z,3.13
2023-06-04T12:38:10.324Z,2.90
2023-06-04T12:40:37.340Z,2.65
2023-06-04T12:43:04.141Z,2.83
2023-06-04T12:45:31.206Z,2.92
2023-06-04T12:47:57.985Z,3.65
2023-06-04T12:50:24.781Z,3.72
2023-06-04T12:52:51.716Z,3.00
2023-06-04T12:55:18.848Z,3.00
2023-06-04T12:57:47.205Z,2.75
2023-06-04T13:00:17.651Z,4.05
2023-06-04T13:02:44.713Z,3.00
2023-06-04T13:05:11.469Z,3.80
2023-06-04T13:07:38.435Z,4.05
2023-06-04T13:10:05.447Z,3.47
2023-06-04T13:12:32.208Z,5.40
2023-06-04T13:14:58.982Z,4.80
2023-06-04T13:17:25.745Z,5.20
2023-06-04T13:19:53.608Z,4.18
2023-06-04T13:22:20.449Z,3.72
2023-06-04T13:24:47.180Z,4.60
2023-06-04T13:27:13.906Z,4.55
2023-06-04T13:29:43.758Z,4.78
2023-06-04T13:32:12.026Z,4.50
2023-06-04T13:34:39.031Z,4.97
2023-06-04T13:37:07.237Z,4.97
2023-06-04T13:39:34.110Z,5.53
2023-06-04T13:42:01.049Z,6.22
2023-06-04T13:44:30.009Z,5.35
2023-06-04T13:46:59.642Z,5.32
2023-06-04T13:49:26.627Z,4.43
2023-06-04T13:51:53.417Z,5.60
2023-06-04T13:54:20.173Z,5.57
2023-06-04T13:56:49.439Z,4.65
2023-06-04T13:59:16.216Z,5.18
2023-06-04T14:01:42.990Z,5.43
2023-06-04T14:04:10.134Z,5.53
2023-06-04T14:06:37.444Z,4.97
2023-06-04T14:09:05.162Z,5.47
2023-06-04T14:11:33.686Z,4.75
2023-06-04T14:14:00.670Z,5.32
2023-06-04T14:16:27.484Z,5.72
2023-06-04T14:18:54.454Z,5.00
2023-06-04T14:21:22.365Z,4.68
2023-06-04T14:23:50.553Z,4.53
2023-06-04T14:26:18.863Z,5.30
2023-06-04T14:28:45.962Z,5.07
2023-06-04T14:31:12.728Z,5.68
2023-06-04T14:33:39.678Z,4.97
2023-06-04T14:36:06.786Z,4.70
2023-06-04T14:38:33.677Z,5.65
2023-06-04T14:41:00.870Z,4.68
2023-06-04T14:43:27.675Z,4.50
2023-06-04T14:45:54.406Z,5.22
2023-06-04T14:48:21.263Z,5.13
2023-06-04T14:50:48.095Z,5.07
2023-06-04T14:53:14.799Z,5.20
2023-06-04T14:55:41.717Z,5.47
2023-06-04T14:58:08.543Z,4.93
2023-06-04T15:00:35.383Z,5.13
2023-06-04T15:03:03.807Z,5.40
2023-06-04T15:05:33.984Z,5.15
2023-06-04T15:08:01.037Z,4.88
2023-06-04T15:10:27.883Z,5.07
2023-06-04T15:12:55.097Z,5.28
2023-06-04T15:15:22.187Z,5.32
2023-06-04T15:17:49.972Z,5.63
2023-06-04T15:20:17.039Z,4.93
2023-06-04T15:22:43.782Z,5.07
2023-06-04T15:25:10.730Z,5.10
2023-06-04T15:27:39.863Z,5.72
2023-06-04T15:30:08.240Z,5.57
2023-06-04T15:32:35.402Z,4.93
2023-06-04T15:35:03.493Z,5.18
2023-06-04T15:37:30.271Z,5.78
2023-06-04T15:39:58.973Z,5.72
2023-06-04T15:42:25.926Z,5.20
2023-06-04T15:44:52.737Z,6.88
2023-06-04T15:47:19.520Z,6.70
2023-06-04T15:49:46.352Z,7.20
2023-06-04T15:52:13.095Z,8.65
2023-06-04T15:54:46.440Z,12.20
2023-06-04T15:57:14.359Z,11.73
2023-06-04T15:59:42.389Z,12.38
2023-06-04T16:02:09.484Z,10.48
2023-06-04T16:04:36.591Z,11.50
2023-06-04T16:07:04.159Z,10.07
2023-06-04T16:09:30.970Z,10.15
2023-06-04T16:11:57.743Z,9.57
2023-06-04T16:14:24.496Z,7.90
2023-06-04T16:16:51.691Z,8.02
2023-06-04T16:19:18.638Z,8.70
2023-06-04T16:21:45.397Z,8.20
2023-06-04T16:24:12.207Z,7.63
2023-06-04T16:26:39.057Z,7.35
2023-06-04T16:29:05.844Z,6.35
2023-06-04T16:31:32.620Z,6.82
2023-06-04T16:33:59.429Z,6.65
2023-06-04T16:36:26.768Z,6.65
2023-06-04T16:38:53.617Z,6.07
2023-06-04T16:41:21.247Z,5.63
2023-06-04T16:43:48.370Z,5.65
2023-06-04T16:46:16.647Z,5.13
2023-06-04T16:48:43.453Z,4.60
2023-06-04T16:51:10.696Z,4.22
2023-06-04T16:53:37.520Z,4.22
2023-06-04T16:56:04.395Z,2.42
2023-06-04T16:58:31.322Z,2.03
2023-06-04T17:00:58.227Z,2.10
2023-06-04T17:03:25.096Z,2.33
2023-06-04T17:05:51.894Z,2.85
2023-06-04T17:08:18.706Z,2.80
2023-06-04T17:10:45.711Z,2.55
2023-06-04T17:13:12.532Z,3.25
2023-06-04T17:15:39.319Z,3.00
2023-06-04T17:18:11.586Z,3.15
2023-06-04T17:20:39.489Z,2.97
2023-06-04T17:23:20.928Z,3.38
2023-06-04T17:25:48.001Z,3.42
2023-06-04T17:28:16.118Z,3.22
2023-06-04T17:30:43.257Z,3.95
2023-06-04T17:33:11.086Z,3.03
2023-06-04T17:35:39.529Z,15.73
2023-06-04T17:38:06.685Z,10.85
2023-06-04T17:40:33.423Z,3.60
2023-06-04T17:43:00.438Z,6.03
2023-06-04T17:45:27.287Z,3.83
2023-06-04T17:47:54.180Z,3.70
2023-06-04T17:50:21.053Z,4.70
2023-06-04T17:52:50.842Z,3.90
2023-06-04T17:55:17.811Z,4.03
2023-06-04T17:57:44.702Z,5.00
2023-06-04T18:00:12.111Z,4.40
2023-06-04T18:02:38.982Z,4.60
2023-06-04T18:05:06.281Z,4.63
2023-06-04T18:07:33.293Z,4.60
2023-06-04T18:10:00.034Z,4.05
2023-06-04T18:12:27.120Z,5.00
2023-06-04T18:14:54.150Z,5.95
2023-06-04T18:17:21.021Z,6.30
2023-06-04T18:19:49.682Z,5.75
2023-06-04T18:22:16.572Z,5.88
2023-06-04T18:24:43.402Z,5.72
2023-06-04T18:27:10.367Z,5.75
2023-06-04T18:29:37.134Z,5.75
2023-06-04T18:32:04.160Z,6.65
2023-06-04T18:34:31.106Z,6.25
2023-06-04T18:36:58.544Z,6.68
2023-06-04T18:39:26.409Z,5.40
2023-06-04T18:41:56.024Z,4.82
2023-06-04T18:44:23.592Z,5.93
2023-06-04T18:46:51.053Z,5.78
2023-06-04T18:49:22.632Z,6.40
2023-06-04T18:51:53.316Z,6.32
2023-06-04T18:54:21.200Z,7.28
2023-06-04T18:56:48.236Z,7.13
2023-06-04T18:59:17.233Z,6.80
2023-06-04T19:01:44.834Z,7.35
2023-06-04T19:04:14.013Z,7.53
2023-06-04T19:06:42.613Z,8.30
2023-06-04T19:09:10.023Z,7.57
2023-06-04T19:11:38.245Z,9.00
2023-06-04T19:14:05.809Z,8.98
2023-06-04T19:16:35.316Z,8.20
2023-06-04T19:19:08.983Z,9.00
2023-06-04T19:21:37.732Z,8.52
2023-06-04T19:24:06.036Z,9.82
2023-06-04T19:26:34.953Z,9.38
2023-06-04T19:29:02.508Z,8.95
2023-06-04T19:31:31.442Z,9.82
2023-06-04T19:34:00.831Z,9.68
2023-06-04T19:36:28.107Z,10.55
2023-06-04T19:38:56.840Z,7.25
2023-06-04T19:41:24.324Z,6.05
2023-06-04T19:43:51.650Z,6.07
2023-06-04T19:46:18.967Z,5.93
2023-06-04T19:48:46.517Z,5.15
2023-06-04T19:51:14.983Z,5.03
2023-06-04T19:53:42.114Z,5.20
2023-06-04T19:56:09.654Z,5.10
2023-06-04T19:58:37.065Z,5.68
2023-06-04T20:01:04.204Z,4.55
2023-06-04T20:03:33.460Z,4.70
2023-06-04T20:06:00.467Z,4.60
2023-06-04T20:08:27.883Z,4.65
2023-06-04T20:10:55.270Z,4.50
2023-06-04T20:13:22.357Z,4.90
2023-06-04T20:15:49.613Z,4.55
2023-06-04T20:18:17.012Z,4.95
2023-06-04T20:20:44.197Z,4.75
2023-06-04T20:23:11.155Z,4.97
2023-06-04T20:25:38.240Z,4.60
2023-06-04T20:28:05.542Z,5.00
2023-06-04T20:30:32.592Z,5.03
2023-06-04T20:32:59.783Z,4.55
2023-06-04T20:35:28.079Z,4.43
2023-06-04T20:37:55.350Z,4.78
2023-06-04T20:40:23.088Z,3.85
2023-06-04T20:42:51.880Z,3.70
2023-06-04T20:45:19.230Z,3.72
2023-06-04T20:47:46.580Z,3.38
2023-06-04T20:50:13.756Z,3.33
2023-06-04T20:52:41.097Z,3.05
2023-06-04T20:55:09.428Z,3.25
2023-06-04T20:57:37.118Z,2.90
2023-06-04T21:00:06.340Z,2.92
2023-06-04T21:02:33.776Z,3.17
2023-06-04T21:05:01.173Z,3.20
2023-06-04T21:07:28.428Z,3.60
2023-06-04T21:09:55.915Z,3.53
2023-06-04T21:12:23.025Z,3.80
2023-06-04T21:14:49.881Z,4.18
2023-06-04T21:17:16.851Z,4.07
2023-06-04T21:19:43.666Z,4.40
2023-06-04T21:22:10.475Z,5.00
2023-06-04T21:24:37.247Z,5.07
2023-06-04T21:27:04.197Z,5.63
2023-06-04T21:29:30.998Z,6.25
2023-06-04T21:31:58.088Z,6.43
2023-06-04T21:34:24.885Z,6.03
2023-06-04T21:36:51.670Z,5.97
2023-06-04T21:39:18.451Z,6.55
2023-06-04T21:41:45.385Z,6.70
2023-06-04T21:44:12.119Z,8.15
2023-06-04T21:46:39.269Z,7.53
2023-06-04T21:49:05.971Z,8.27
2023-06-04T21:51:33.174Z,7.22
2023-06-04T21:54:00.039Z,7.53
2023-06-04T21:56:27.874Z,8.57
2023-06-04T21:58:54.758Z,7.20
2023-06-04T22:01:21.658Z,8.15
2023-06-04T22:03:48.531Z,7.85
2023-06-04T22:06:15.345Z,7.65
2023-06-04T22:08:42.076Z,8.48
2023-06-04T22:11:08.981Z,8.35
2023-06-04T22:13:36.611Z,7.95
2023-06-04T22:16:03.658Z,8.30
2023-06-04T22:18:40.787Z,8.68
2023-06-04T22:21:17.538Z,8.35
2023-06-04T22:23:44.343Z,8.15
2023-06-04T22:26:18.321Z,8.45
2023-06-04T22:28:51.689Z,8.40
2023-06-04T22:31:18.492Z,8.70
2023-06-04T22:33:45.295Z,8.30
2023-06-04T22:36:12.302Z,8.80
2023-06-04T22:38:39.066Z,8.68
2023-06-04T22:41:06.030Z,8.60
2023-06-04T22:43:32.933Z,7.80
2023-06-04T22:45:59.657Z,7.53
2023-06-04T22:48:26.628Z,7.80
2023-06-04T22:50:53.444Z,7.20
2023-06-04T22:53:20.355Z,7.50
2023-06-04T22:55:47.433Z,6.93
2023-06-04T22:58:14.535Z,6.38
2023-06-04T23:00:42.562Z,6.60
2023-06-04T23:03:09.784Z,6.70
2023-06-04T23:05:36.666Z,6.15
2023-06-04T23:08:03.339Z,5.75
2023-06-04T23:10:30.001Z,5.43
2023-06-04T23:12:56.939Z,5.95
2023-06-04T23:15:24.810Z,5.38
2023-06-04T23:17:52.325Z,5.28
2023-06-04T23:20:20.021Z,5.78
2023-06-04T23:22:46.844Z,5.30
2023-06-04T23:25:13.707Z,5.72
2023-06-04T23:27:40.513Z,5.20
2023-06-04T23:30:07.808Z,5.45
2023-06-04T23:32:34.684Z,5.50
2023-06-04T23:35:01.436Z,5.00
2023-06-04T23:37:28.164Z,5.10
2023-06-04T23:39:54.997Z,5.10
2023-06-04T23:42:22.009Z,4.80
2023-06-04T23:44:48.781Z,4.65
2023-06-04T23:47:15.583Z,4.30
2023-06-04T23:49:42.350Z,4.65
2023-06-04T23:52:09.068Z,4.68
2023-06-04T23:54:35.890Z,4.57
2023-06-04T23:57:02.741Z,4.25
2023-06-04T23:59:29.474Z,3.85
